Time;durP1;ratioP1;P1;durP2;ratioP2;P2;SDS_P1;SDS_P2;PMS_P1;PMS_P2;Temp;Humidity;BMP_temperature;BMP_pressure;BME280_temperature;BME280_humidity;BME280_pressure;Samples;Min_cycle;Max_cycle;Signal;HPM_P1;HPM_P2
2022/10/10 00:00:48;;;;;;;6.47;2.22;;;9.10;99.90;;;;;;5143241;27;20113;-81
2022/10/10 00:03:13;;;;;;;3.92;1.65;;;9.10;99.90;;;;;;5125188;27;20045;-81
2022/10/10 00:05:39;;;;;;;2.00;1.70;;;9.40;99.90;;;;;;5141344;27;20039;-81
2022/10/10 00:08:06;;;;;;;4.43;1.83;;;9.20;99.90;;;;;;5116240;27;20047;-81
2022/10/10 00:10:32;;;;;;;5.30;1.85;;;9.20;99.90;;;;;;5132699;27;20511;-81
2022/10/10 00:12:58;;;;;;;4.22;1.92;;;9.60;99.90;;;;;;5141736;27;20053;-81
2022/10/10 00:15:24;;;;;;;5.32;2.00;;;9.20;99.90;;;;;;5133855;27;20035;-81
2022/10/10 00:17:49;;;;;;;4.07;1.90;;;10.90;99.90;;;;;;5127981;27;20393;-81
2022/10/10 00:20:17;;;;;;;6.72;2.22;;;9.20;99.90;;;;;;5126897;27;20140;-81
2022/10/10 00:22:43;;;;;;;5.35;2.13;;;9.20;99.90;;;;;;5089032;27;20130;-81
2022/10/10 00:25:09;;;;;;;6.80;1.98;;;9.20;99.90;;;;;;5088984;27;20039;-81
2022/10/10 00:27:36;;;;;;;4.07;2.30;;;9.20;99.90;;;;;;5119812;27;20062;-81
2022/10/10 00:30:03;;;;;;;3.45;1.92;;;9.20;99.90;;;;;;5105449;27;20039;-81
2022/10/10 00:32:29;;;;;;;6.25;1.80;;;9.10;99.90;;;;;;5114626;27;20050;-81
2022/10/10 00:34:55;;;;;;;4.15;2.00;;;9.10;99.90;;;;;;5098171;27;20193;-81
2022/10/10 00:37:20;;;;;;;4.25;2.13;;;9.10;99.90;;;;;;5137690;27;20039;-81
2022/10/10 00:39:46;;;;;;;5.13;2.05;;;9.10;99.90;;;;;;5117555;27;20035;-81
2022/10/10 00:42:14;;;;;;;3.95;1.73;;;9.10;99.90;;;;;;5137134;27;20031;-81
2022/10/10 00:44:42;;;;;;;2.50;1.95;;;9.80;99.90;;;;;;5133881;27;20074;-81
2022/10/10 00:47:08;;;;;;;9.70;2.28;;;9.10;99.90;;;;;;5138028;27;20031;-81
2022/10/10 00:49:37;;;;;;;3.47;2.20;;;9.10;99.90;;;;;;5103332;27;20135;-81
2022/10/10 00:52:05;;;;;;;7.22;2.38;;;9.10;99.90;;;;;;5116994;27;20043;-81
2022/10/10 00:54:32;;;;;;;7.63;2.17;;;9.10;99.90;;;;;;5120285;27;20046;-81
2022/10/10 00:57:09;;;;;;;5.68;2.38;;;9.10;99.90;;;;;;5134327;27;20042;-81
2022/10/10 00:59:37;;;;;;;4.32;2.22;;;9.10;99.90;;;;;;5122400;27;20498;-81
2022/10/10 01:02:04;;;;;;;4.15;1.63;;;9.10;99.90;;;;;;5144567;27;20027;-81
2022/10/10 01:04:42;;;;;;;3.45;2.22;;;9.10;99.90;;;;;;5140429;27;20047;-81
2022/10/10 01:07:16;;;;;;;3.58;1.77;;;9.10;99.90;;;;;;5140737;27;20087;-81
2022/10/10 01:09:43;;;;;;;6.57;2.53;;;9.10;99.90;;;;;;5117947;27;20402;-81
2022/10/10 01:12:25;;;;;;;4.07;2.08;;;9.00;99.90;;;;;;5141718;27;20046;-81
2022/10/10 01:15:13;;;;;;;2.92;2.30;;;9.10;99.90;;;;;;5139415;27;20118;-81
2022/10/10 01:17:56;;;;;;;3.20;2.47;;;9.10;99.90;;;;;;5118313;27;20043;-81
2022/10/10 01:20:45;;;;;;;3.88;2.67;;;9.00;99.90;;;;;;5121406;27;20035;-81
2022/10/10 01:23:51;;;;;;;9.55;3.13;;;9.10;99.90;;;;;;5124592;27;20034;-81
2022/10/10 01:26:25;;;;;;;3.55;2.20;;;9.00;99.90;;;;;;5142252;27;20039;-81
2022/10/10 01:29:09;;;;;;;6.82;2.17;;;9.00;99.90;;;;;;5119790;27;20058;-81
2022/10/10 01:31:41;;;;;;;3.00;2.08;;;9.00;99.90;;;;;;5120145;27;20376;-81
2022/10/10 01:34:14;;;;;;;6.50;2.70;;;10.60;99.90;;;;;;5138151;27;20135;-82
2022/10/10 01:37:15;;;;;;;4.53;2.25;;;9.00;99.90;;;;;;5136951;27;20499;-81
2022/10/10 01:39:51;;;;;;;3.85;2.42;;;8.90;99.90;;;;;;5115530;27;20697;-81
2022/10/10 01:42:29;;;;;;;4.18;2.25;;;8.90;99.90;;;;;;5115863;27;20030;-81
2022/10/10 01:44:55;;;;;;;3.60;2.88;;;8.90;99.90;;;;;;5093596;27;20091;-82
2022/10/10 01:47:21;;;;;;;3.72;2.53;;;8.90;99.90;;;;;;5092932;27;20045;-81
2022/10/10 01:49:51;;;;;;;6.47;2.78;;;8.90;99.90;;;;;;5118913;27;20099;-81
2022/10/10 01:52:16;;;;;;;4.07;2.50;;;8.80;99.90;;;;;;5116615;27;20113;-81
2022/10/10 01:55:11;;;;;;;5.45;2.35;;;8.80;99.90;;;;;;5100750;27;20133;-80
2022/10/10 01:57:50;;;;;;;4.97;2.88;;;8.80;99.90;;;;;;5081013;27;20062;-80
2022/10/10 02:00:17;;;;;;;5.82;2.45;;;8.80;99.90;;;;;;5118707;27;20166;-81
2022/10/10 02:02:54;;;;;;;5.28;2.88;;;8.80;99.90;;;;;;5101449;27;20518;-81
2022/10/10 02:05:28;;;;;;;5.68;2.80;;;8.80;99.90;;;;;;5115248;27;20119;-81
2022/10/10 02:07:57;;;;;;;;;;;8.80;99.90;;;;;;5126529;27;20043;-80
2022/10/10 02:10:31;;;;;;;4.18;2.38;;;8.80;99.90;;;;;;5120658;27;19919;-80
2022/10/10 02:12:59;;;;;;;8.63;2.60;;;9.10;99.90;;;;;;5139938;27;20419;-79
2022/10/10 02:15:36;;;;;;;5.20;2.67;;;10.10;99.90;;;;;;5128430;27;20043;-81
2022/10/10 02:18:05;;;;;;;5.40;2.70;;;9.10;99.90;;;;;;5117676;27;20030;-81
2022/10/10 02:20:31;;;;;;;5.45;3.00;;;8.80;99.90;;;;;;5107106;27;20077;-81
2022/10/10 02:22:56;;;;;;;4.43;3.33;;;8.80;99.90;;;;;;5124448;27;20084;-81
2022/10/10 02:25:28;;;;;;;8.10;3.10;;;8.70;99.90;;;;;;5101458;27;20043;-81
2022/10/10 02:28:16;;;;;;;8.50;2.97;;;8.70;99.90;;;;;;5126202;27;20049;-81
2022/10/10 02:30:45;;;;;;;4.20;2.55;;;8.70;99.90;;;;;;5103943;27;20406;-81
2022/10/10 02:33:14;;;;;;;5.13;2.95;;;8.70;99.90;;;;;;5099072;27;20039;-81
2022/10/10 02:35:43;;;;;;;3.58;2.90;;;8.70;99.90;;;;;;5139167;27;20062;-81
2022/10/10 02:38:13;;;;;;;5.90;3.42;;;10.00;99.90;;;;;;5139663;27;20125;-81
2022/10/10 02:40:44;;;;;;;3.83;2.75;;;9.90;99.90;;;;;;5119338;27;20043;-81
2022/10/10 02:43:11;;;;;;;5.22;3.28;;;9.00;99.90;;;;;;5095814;27;20035;-81
2022/10/10 02:45:39;;;;;;;3.58;3.17;;;8.60;99.90;;;;;;5117939;28;20395;-81
2022/10/10 02:48:05;;;;;;;5.80;3.03;;;8.60;99.90;;;;;;5117971;27;20068;-81
2022/10/10 02:50:32;;;;;;;3.88;2.92;;;8.60;99.90;;;;;;5102095;27;20035;-81
2022/10/10 02:52:58;;;;;;;4.35;3.05;;;10.20;99.90;;;;;;5121703;27;20075;-81
2022/10/10 02:55:23;;;;;;;5.25;2.75;;;8.60;99.90;;;;;;5146018;27;20546;-80
2022/10/10 02:57:49;;;;;;;8.15;3.45;;;8.50;99.90;;;;;;5119445;27;20043;-80
2022/10/10 03:00:15;;;;;;;7.22;3.10;;;8.60;99.90;;;;;;5121768;27;20046;-81
2022/10/10 03:02:41;;;;;;;4.57;3.53;;;8.60;99.90;;;;;;5144032;27;20092;-80
2022/10/10 03:05:07;;;;;;;4.88;3.17;;;8.70;99.90;;;;;;5143376;27;20129;-81
2022/10/10 03:07:33;;;;;;;5.30;3.40;;;8.60;99.90;;;;;;5129696;27;20050;-81
2022/10/10 03:09:58;;;;;;;5.10;3.15;;;8.90;99.90;;;;;;5121243;27;20058;-81
2022/10/10 03:12:24;;;;;;;7.93;3.55;;;8.50;99.90;;;;;;5117237;27;20067;-81
2022/10/10 03:14:50;;;;;;;7.78;3.45;;;8.50;99.90;;;;;;5117391;27;20123;-81
2022/10/10 03:17:15;;;;;;;4.35;3.40;;;8.50;99.90;;;;;;5137490;27;20113;-80
2022/10/10 03:19:41;;;;;;;10.50;3.50;;;8.50;99.90;;;;;;5121190;27;20122;-80
2022/10/10 03:22:06;;;;;;;4.93;3.80;;;8.70;99.90;;;;;;5137751;27;20033;-80
2022/10/10 03:24:32;;;;;;;6.45;3.50;;;8.50;99.90;;;;;;5097106;27;20047;-81
2022/10/10 03:26:58;;;;;;;4.18;3.40;;;8.40;99.90;;;;;;5105168;27;20437;-81
2022/10/10 03:29:24;;;;;;;8.57;3.80;;;8.40;99.90;;;;;;5117912;27;20039;-81
2022/10/10 03:31:49;;;;;;;6.30;3.35;;;8.40;99.90;;;;;;5119088;27;20077;-81
2022/10/10 03:34:15;;;;;;;8.57;3.67;;;8.30;99.90;;;;;;5101288;27;20031;-81
2022/10/10 03:36:41;;;;;;;5.28;3.78;;;8.40;99.90;;;;;;5113692;27;20032;-81
2022/10/10 03:39:08;;;;;;;7.57;3.17;;;8.70;99.90;;;;;;5095070;27;20035;-81
2022/10/10 03:41:34;;;;;;;4.15;3.45;;;8.30;99.90;;;;;;5119475;27;20428;-81
2022/10/10 03:44:00;;;;;;;7.97;3.10;;;8.30;99.90;;;;;;5117924;27;20039;-81
2022/10/10 03:46:26;;;;;;;5.88;3.90;;;8.60;99.90;;;;;;5098077;27;20522;-81
2022/10/10 03:48:51;;;;;;;6.95;3.58;;;9.90;99.90;;;;;;5117919;27;20039;-81
2022/10/10 03:51:17;;;;;;;6.97;4.10;;;8.20;99.90;;;;;;5118806;27;20072;-81
2022/10/10 03:53:43;;;;;;;6.00;3.72;;;8.20;99.90;;;;;;5127804;27;20373;-81
2022/10/10 03:56:08;;;;;;;8.35;3.70;;;8.20;99.90;;;;;;5122749;27;20457;-81
2022/10/10 03:58:34;;;;;;;6.00;3.55;;;8.20;99.90;;;;;;5122617;27;20036;-81
2022/10/10 04:01:01;;;;;;;6.68;3.63;;;9.60;99.90;;;;;;5111788;27;20434;-81
2022/10/10 04:03:28;;;;;;;4.45;3.50;;;8.20;99.90;;;;;;5127745;27;20571;-81
2022/10/10 04:05:54;;;;;;;4.55;3.97;;;10.00;99.90;;;;;;5120024;27;20047;-81
2022/10/10 04:08:19;;;;;;;6.53;3.92;;;8.10;99.90;;;;;;5118714;27;20043;-81
2022/10/10 04:10:50;;;;;;;4.93;3.83;;;9.10;99.90;;;;;;5124522;27;20075;-80
2022/10/10 04:13:17;;;;;;;7.40;3.80;;;8.10;99.90;;;;;;5115966;27;20039;-80
2022/10/10 04:15:43;;;;;;;6.60;3.70;;;8.10;99.90;;;;;;5112429;27;20125;-81
2022/10/10 04:18:09;;;;;;;8.65;4.07;;;8.10;99.90;;;;;;5116751;27;20043;-81
2022/10/10 04:20:37;;;;;;;4.63;3.65;;;8.50;99.90;;;;;;5115212;27;20048;-81
2022/10/10 04:23:02;;;;;;;4.43;3.67;;;8.10;99.90;;;;;;5119170;27;20042;-80
2022/10/10 04:25:28;;;;;;;5.55;4.18;;;8.10;99.90;;;;;;5117191;27;20044;-81
2022/10/10 04:27:54;;;;;;;7.60;4.05;;;8.10;99.90;;;;;;5134921;27;20079;-80
2022/10/10 04:30:20;;;;;;;6.88;4.55;;;8.50;99.90;;;;;;5100382;27;20043;-80
2022/10/10 04:32:45;;;;;;;5.95;3.70;;;8.10;99.90;;;;;;5100640;27;20050;-80
2022/10/10 04:35:11;;;;;;;7.38;4.18;;;8.10;99.90;;;;;;5094099;27;20129;-81
2022/10/10 04:37:37;;;;;;;5.97;4.00;;;8.10;99.90;;;;;;5134973;27;20047;-81
2022/10/10 04:40:03;;;;;;;7.38;4.28;;;9.50;99.90;;;;;;5139722;27;20042;-80
2022/10/10 04:42:29;;;;;;;4.72;4.32;;;7.80;99.90;;;;;;5135051;27;20103;-80
2022/10/10 04:44:54;;;;;;;4.95;3.90;;;8.00;99.90;;;;;;5089080;27;21062;-80
2022/10/10 04:47:20;;;;;;;9.63;4.28;;;8.10;99.90;;;;;;5116504;27;20042;-81
2022/10/10 04:49:46;;;;;;;7.10;4.65;;;8.00;99.90;;;;;;5120736;27;20034;-82
2022/10/10 04:52:12;;;;;;;6.78;4.47;;;8.00;99.90;;;;;;5118696;27;20475;-81
2022/10/10 04:54:38;;;;;;;6.57;3.63;;;8.00;99.90;;;;;;5100311;27;20082;-79
2022/10/10 04:57:04;;;;;;;5.97;4.05;;;8.00;99.90;;;;;;5127932;27;20041;-80
2022/10/10 04:59:30;;;;;;;6.50;4.35;;;9.70;99.90;;;;;;5129177;27;20062;-80
2022/10/10 05:02:00;;;;;;;5.43;4.20;;;8.00;99.90;;;;;;5116717;27;20492;-80
2022/10/10 05:04:26;;;;;;;8.80;5.13;;;9.30;99.90;;;;;;5120790;27;20470;-80
2022/10/10 05:06:52;;;;;;;6.03;4.15;;;7.60;99.90;;;;;;5122310;27;20112;-80
2022/10/10 05:09:17;;;;;;;5.25;4.03;;;7.90;99.90;;;;;;5142251;27;20099;-80
2022/10/10 05:11:43;;;;;;;6.28;4.20;;;8.00;99.90;;;;;;5115847;27;20035;-80
2022/10/10 05:14:09;;;;;;;7.63;4.35;;;8.10;99.90;;;;;;5105525;27;20046;-81
2022/10/10 05:16:34;;;;;;;9.88;5.20;;;7.80;99.90;;;;;;5101970;27;20407;-79
2022/10/10 05:19:00;;;;;;;9.50;4.72;;;8.80;99.90;;;;;;5114900;27;20037;-80
2022/10/10 05:21:27;;;;;;;8.23;4.28;;;7.90;99.90;;;;;;5125857;27;20128;-79
2022/10/10 05:23:53;;;;;;;5.97;4.78;;;9.80;99.90;;;;;;5136051;27;20535;-80
2022/10/10 05:26:19;;;;;;;6.72;4.32;;;8.00;99.90;;;;;;5145705;27;20125;-78
2022/10/10 05:28:48;;;;;;;10.75;5.13;;;8.00;99.90;;;;;;5145806;27;20081;-79
2022/10/10 05:31:14;;;;;;;9.00;5.10;;;8.00;99.90;;;;;;4411883;27;10000758;-77
2022/10/10 05:33:39;;;;;;;8.35;4.72;;;8.00;99.90;;;;;;5098266;27;20050;-79
2022/10/10 05:36:09;;;;;;;5.10;4.40;;;7.90;99.90;;;;;;5123871;27;20405;-80
2022/10/10 05:38:35;;;;;;;8.57;5.05;;;8.00;99.90;;;;;;5100091;27;20096;-80
2022/10/10 05:41:01;;;;;;;5.85;4.70;;;7.80;99.90;;;;;;5117390;27;20504;-81
2022/10/10 05:43:27;;;;;;;5.75;5.05;;;7.90;99.90;;;;;;5126201;27;20468;-81
2022/10/10 05:46:02;;;;;;;4.85;4.45;;;7.90;99.90;;;;;;5137260;27;20466;-80
2022/10/10 05:48:27;;;;;;;9.45;4.70;;;7.90;99.90;;;;;;5101381;27;20115;-81
2022/10/10 05:50:56;;;;;;;7.68;4.85;;;7.90;99.90;;;;;;5147623;27;20066;-81
2022/10/10 05:53:24;;;;;;;10.43;4.78;;;7.90;99.90;;;;;;5130780;27;20073;-80
2022/10/10 05:55:50;;;;;;;8.43;5.03;;;7.90;99.90;;;;;;5143040;27;20390;-80
2022/10/10 05:58:16;;;;;;;7.40;4.70;;;7.90;99.90;;;;;;5149219;27;20034;-81
2022/10/10 06:00:46;;;;;;;10.32;4.90;;;9.40;99.90;;;;;;5122954;27;20030;-80
2022/10/10 06:03:15;;;;;;;6.13;5.15;;;7.90;99.90;;;;;;5121633;27;20042;-80
2022/10/10 06:05:43;;;;;;;6.43;4.93;;;7.90;99.90;;;;;;5109924;27;20039;-79
2022/10/10 06:08:11;;;;;;;6.85;5.03;;;7.90;99.90;;;;;;5102198;27;20384;-82
2022/10/10 06:10:43;;;;;;;4.90;4.40;;;7.90;99.90;;;;;;5097749;27;20511;-81
2022/10/10 06:13:10;;;;;;;6.88;4.43;;;9.50;99.90;;;;;;5126914;27;20047;-81
2022/10/10 06:15:36;;;;;;;6.60;5.28;;;9.20;99.90;;;;;;5122615;27;20027;-85
2022/10/10 06:18:02;;;;;;;7.80;4.82;;;7.90;99.90;;;;;;5145385;27;20114;-82
2022/10/10 06:20:31;;;;;;;7.47;5.30;;;7.90;99.90;;;;;;5146960;27;20537;-82
2022/10/10 06:22:57;;;;;;;5.95;4.70;;;7.90;99.90;;;;;;5097851;27;20115;-89
2022/10/10 06:25:27;;;;;;;24.80;22.35;;;7.90;99.90;;;;;;5131311;27;20549;-91
2022/10/10 06:27:53;;;;;;;11.50;8.77;;;8.40;99.90;;;;;;5090170;27;20047;-84
2022/10/10 06:30:19;;;;;;;10.38;5.93;;;7.90;99.90;;;;;;5118794;27;20106;-81
2022/10/10 06:32:44;;;;;;;7.88;4.90;;;10.00;99.90;;;;;;5146782;27;20088;-79
2022/10/10 06:35:10;;;;;;;8.80;5.22;;;7.90;99.90;;;;;;5136323;27;20493;-80
2022/10/10 06:37:36;;;;;;;5.85;5.03;;;10.20;99.90;;;;;;5118338;27;20125;-80
2022/10/10 06:40:02;;;;;;;8.77;5.65;;;8.00;99.90;;;;;;5124103;27;20512;-80
2022/10/10 06:42:27;;;;;;;5.43;4.82;;;8.10;99.90;;;;;;5121164;27;20047;-80
2022/10/10 06:44:53;;;;;;;8.60;5.60;;;8.20;99.90;;;;;;5107698;27;20509;-80
2022/10/10 06:47:19;;;;;;;6.47;5.05;;;10.10;99.90;;;;;;5116653;27;20045;-80
2022/10/10 06:49:45;;;;;;;9.10;5.57;;;10.10;99.90;;;;;;5137610;27;20450;-79
2022/10/10 06:52:10;;;;;;;9.10;5.20;;;8.90;99.90;;;;;;5136660;27;20030;-80
2022/10/10 06:54:36;;;;;;;6.22;5.28;;;9.60;99.90;;;;;;5127142;27;20223;-80
2022/10/10 06:57:02;;;;;;;9.00;5.13;;;10.40;99.90;;;;;;5135642;27;20038;-80
2022/10/10 06:59:27;;;;;;;7.93;4.95;;;9.60;99.90;;;;;;5135353;27;20035;-80
2022/10/10 07:01:53;;;;;;;7.40;5.32;;;8.30;99.90;;;;;;5132515;27;20039;-81
2022/10/10 07:04:19;;;;;;;11.00;5.45;;;10.00;99.90;;;;;;5153109;27;20041;-80
2022/10/10 07:06:44;;;;;;;10.63;4.97;;;8.20;99.90;;;;;;5137257;27;20446;-79
2022/10/10 07:09:10;;;;;;;9.48;5.85;;;8.10;99.90;;;;;;5121828;27;20506;-80
2022/10/10 07:11:36;;;;;;;8.93;5.88;;;8.20;99.90;;;;;;5118614;27;20061;-80
2022/10/10 07:14:01;;;;;;;10.90;7.05;;;9.80;99.90;;;;;;5133164;27;20084;-80
2022/10/10 07:16:30;;;;;;;8.95;5.68;;;8.30;99.90;;;;;;5153639;27;20421;-80
2022/10/10 07:18:55;;;;;;;9.50;6.63;;;8.30;99.90;;;;;;5132613;27;20498;-80
2022/10/10 07:21:21;;;;;;;9.98;6.45;;;8.40;99.90;;;;;;5108920;27;20038;-80
2022/10/10 07:23:47;;;;;;;9.85;6.28;;;8.40;99.90;;;;;;5125561;27;20091;-80
2022/10/10 07:26:15;;;;;;;6.82;5.30;;;8.40;99.90;;;;;;5149828;27;20054;-80
2022/10/10 07:28:40;;;;;;;13.55;6.53;;;8.40;99.90;;;;;;5136381;27;20072;-80
2022/10/10 07:31:08;;;;;;;13.25;6.40;;;8.50;99.90;;;;;;5106712;27;20473;-81
2022/10/10 07:33:37;;;;;;;10.32;5.95;;;8.60;99.90;;;;;;5135874;27;20047;-79
2022/10/10 07:36:03;;;;;;;7.75;5.60;;;8.60;99.90;;;;;;5150445;27;20438;-80
2022/10/10 07:38:29;;;;;;;9.90;7.05;;;8.60;99.90;;;;;;5135096;27;20141;-80
2022/10/10 07:40:54;;;;;;;9.95;5.93;;;8.40;99.90;;;;;;5132426;27;20036;-80
2022/10/10 07:43:20;;;;;;;8.57;5.95;;;9.90;99.90;;;;;;5115674;27;20046;-80
2022/10/10 07:45:46;;;;;;;8.20;5.95;;;8.80;99.90;;;;;;5152218;27;20030;-80
2022/10/10 07:48:11;;;;;;;7.57;6.07;;;9.90;99.90;;;;;;5130025;27;20114;-80
2022/10/10 07:50:44;;;;;;;8.63;6.03;;;9.80;99.90;;;;;;5151662;27;20405;-79
2022/10/10 07:53:10;;;;;;;11.65;6.00;;;8.90;99.90;;;;;;5152546;27;20390;-79
2022/10/10 07:55:40;;;;;;;10.85;6.07;;;8.90;99.90;;;;;;5148015;27;20098;-79
2022/10/10 07:58:07;;;;;;;12.60;5.68;;;9.00;99.90;;;;;;5151179;27;20617;-79
2022/10/10 08:00:34;;;;;;;8.00;5.72;;;9.00;99.90;;;;;;5147189;27;20080;-79
2022/10/10 08:03:00;;;;;;;9.18;6.20;;;9.10;99.90;;;;;;5120159;27;20066;-79
2022/10/10 08:05:28;;;;;;;8.23;5.75;;;10.90;99.90;;;;;;5107760;27;20071;-78
2022/10/10 08:07:54;;;;;;;7.97;5.63;;;9.30;99.90;;;;;;5125490;27;20035;-79
2022/10/10 08:10:20;;;;;;;11.07;5.75;;;9.10;99.90;;;;;;5146292;27;20099;-79
2022/10/10 08:12:45;;;;;;;10.88;6.15;;;9.40;99.90;;;;;;5106820;27;20082;-80
2022/10/10 08:15:11;;;;;;;12.45;5.75;;;9.50;99.90;;;;;;5133952;27;20042;-79
2022/10/10 08:17:37;;;;;;;12.07;6.50;;;9.50;99.90;;;;;;5103314;27;20039;-79
2022/10/10 08:20:03;;;;;;;10.10;6.05;;;9.70;99.90;;;;;;5120466;27;20068;-80
2022/10/10 08:22:28;;;;;;;14.75;6.95;;;9.80;99.90;;;;;;5129775;27;20081;-80
2022/10/10 08:24:54;;;;;;;13.38;5.47;;;9.90;99.90;;;;;;5131738;27;20062;-80
2022/10/10 08:27:20;;;;;;;7.53;5.60;;;10.00;99.90;;;;;;5146798;27;20051;-80
2022/10/10 08:29:46;;;;;;;12.55;5.85;;;10.00;99.90;;;;;;5149257;27;20053;-81
2022/10/10 08:32:12;;;;;;;7.25;5.90;;;10.10;99.90;;;;;;5104742;27;20043;-80
2022/10/10 08:34:37;;;;;;;14.60;6.93;;;10.20;99.90;;;;;;5129020;27;20046;-80
2022/10/10 08:37:03;;;;;;;7.55;6.25;;;10.30;99.90;;;;;;5151752;27;20342;-80
2022/10/10 08:39:29;;;;;;;8.95;5.72;;;11.70;99.90;;;;;;5120351;27;20494;-80
2022/10/10 08:41:57;;;;;;;7.97;6.28;;;10.40;99.90;;;;;;5150645;27;20030;-80
2022/10/10 08:44:29;;;;;;;12.30;6.82;;;9.60;99.90;;;;;;5129160;27;20047;-80
2022/10/10 08:47:02;;;;;;;9.77;6.22;;;10.60;99.90;;;;;;5148784;27;20039;-80
2022/10/10 08:49:37;;;;;;;9.18;6.35;;;10.70;99.90;;;;;;5143792;27;20043;-80
2022/10/10 08:52:32;;;;;;;8.88;6.35;;;10.60;99.90;;;;;;5139908;27;20054;-80
2022/10/10 08:55:03;;;;;;;14.82;6.72;;;10.80;99.90;;;;;;5116836;27;20541;-80
2022/10/10 08:57:32;;;;;;;8.90;6.45;;;12.30;99.90;;;;;;5120372;27;20043;-80
2022/10/10 09:00:11;;;;;;;10.23;6.63;;;10.90;99.90;;;;;;5124133;27;20470;-80
2022/10/10 09:02:49;;;;;;;9.55;6.95;;;11.00;99.90;;;;;;5122370;27;20035;-81
2022/10/10 09:05:31;;;;;;;10.55;6.60;;;11.10;99.90;;;;;;5151192;27;20037;-80
2022/10/10 09:08:17;;;;;;;8.73;6.30;;;11.20;99.90;;;;;;5129884;27;20394;-80
2022/10/10 09:11:10;;;;;;;11.63;6.40;;;11.70;99.90;;;;;;5118627;27;20447;-80
2022/10/10 09:13:57;;;;;;;14.15;7.10;;;11.40;99.90;;;;;;5128831;27;20134;-80
2022/10/10 09:16:40;;;;;;;11.85;7.30;;;11.40;99.90;;;;;;5103995;27;20078;-81
2022/10/10 09:19:33;;;;;;;11.18;6.13;;;11.50;99.90;;;;;;5119469;27;20078;-80
2022/10/10 09:22:03;;;;;;;10.18;6.10;;;11.60;99.90;;;;;;5113828;27;20390;-81
2022/10/10 09:24:50;;;;;;;9.82;6.45;;;11.60;99.90;;;;;;5127273;27;20050;-81
2022/10/10 09:27:22;;;;;;;10.23;6.95;;;11.60;99.90;;;;;;5119526;27;20051;-80
2022/10/10 09:29:54;;;;;;;7.95;6.50;;;11.70;99.90;;;;;;5145887;27;20047;-81
2022/10/10 09:32:28;;;;;;;10.52;6.60;;;11.70;99.90;;;;;;5145031;27;20103;-80
2022/10/10 09:35:06;;;;;;;11.30;7.18;;;12.80;99.90;;;;;;5146449;27;20090;-80
2022/10/10 09:37:38;;;;;;;12.95;7.05;;;11.80;99.90;;;;;;5150408;27;20099;-80
2022/10/10 09:40:13;;;;;;;10.55;6.72;;;13.10;99.90;;;;;;5119948;27;20065;-80
2022/10/10 09:42:42;;;;;;;10.23;6.95;;;11.80;99.90;;;;;;5119586;27;20031;-80
2022/10/10 09:45:13;;;;;;;12.32;6.72;;;12.00;99.90;;;;;;5147948;27;20061;-80
2022/10/10 09:47:39;;;;;;;13.30;7.18;;;11.90;99.90;;;;;;5149938;27;20443;-80
2022/10/10 09:50:05;;;;;;;13.60;7.07;;;11.90;99.90;;;;;;5120746;27;20043;-81
2022/10/10 09:52:31;;;;;;;11.23;6.38;;;12.00;99.90;;;;;;5123858;27;20527;-80
2022/10/10 09:55:04;;;;;;;11.43;6.88;;;12.70;99.90;;;;;;5147908;27;20073;-80
2022/10/10 09:57:39;;;;;;;12.52;7.13;;;12.90;99.90;;;;;;5144890;27;20039;-79
2022/10/10 10:00:17;;;;;;;7.63;6.72;;;13.20;99.90;;;;;;5123230;27;20042;-79
2022/10/10 10:02:42;;;;;;;11.75;7.50;;;12.20;99.90;;;;;;5149223;27;20091;-80
2022/10/10 10:05:24;;;;;;;13.20;7.40;;;12.30;99.90;;;;;;5127792;27;20046;-80
2022/10/10 10:07:54;;;;;;;12.20;7.65;;;12.70;99.90;;;;;;5123962;27;20043;-79
2022/10/10 10:10:23;;;;;;;11.20;7.93;;;13.40;99.90;;;;;;5105014;27;20034;-80
2022/10/10 10:12:49;;;;;;;9.88;6.70;;;13.80;99.90;;;;;;5119525;27;20079;-80
2022/10/10 10:15:21;;;;;;;9.05;6.63;;;12.60;99.90;;;;;;5124187;27;20035;-80
2022/10/10 10:18:15;;;;;;;8.50;6.72;;;12.70;99.90;;;;;;5104759;27;20122;-80
2022/10/10 10:20:44;;;;;;;8.90;6.45;;;12.70;99.90;;;;;;5122021;27;20054;-79
2022/10/10 10:23:31;;;;;;;8.13;6.45;;;12.80;99.90;;;;;;5140660;27;20378;-80
2022/10/10 10:25:59;;;;;;;11.68;6.30;;;12.90;99.90;;;;;;5104907;27;20051;-81
2022/10/10 10:28:28;;;;;;;11.18;6.93;;;12.90;99.90;;;;;;5119967;28;20118;-81
2022/10/10 10:30:56;;;;;;;16.40;7.15;;;13.00;99.90;;;;;;5117226;27;20295;-80
2022/10/10 10:33:45;;;;;;;14.80;6.70;;;13.10;99.90;;;;;;5102932;28;20047;-79
2022/10/10 10:36:39;;;;;;;9.82;6.65;;;13.20;99.90;;;;;;5119399;27;20045;-80
2022/10/10 10:39:29;;;;;;;13.07;6.45;;;13.30;99.90;;;;;;5104763;27;20161;-80
2022/10/10 10:42:08;;;;;;;10.93;5.88;;;13.50;99.90;;;;;;5113549;27;20050;-80
2022/10/10 10:44:57;;;;;;;13.82;6.45;;;15.20;99.90;;;;;;5104531;27;20065;-80
2022/10/10 10:47:40;;;;;;;9.93;6.20;;;13.70;99.90;;;;;;5124329;27;20031;-81
2022/10/10 10:50:09;;;;;;;11.02;6.15;;;13.70;99.90;;;;;;5122036;27;20049;-79
2022/10/10 10:53:00;;;;;;;12.57;6.10;;;13.90;99.90;;;;;;5127067;27;20046;-79
2022/10/10 10:55:48;;;;;;;9.63;6.55;;;14.00;99.90;;;;;;5095165;28;20583;-80
2022/10/10 10:58:40;;;;;;;9.27;5.82;;;14.00;99.90;;;;;;5100631;27;20578;-80
2022/10/10 11:01:35;;;;;;;11.57;6.53;;;14.10;99.90;;;;;;5130766;27;20050;-80
2022/10/10 11:04:08;;;;;;;10.20;6.13;;;14.10;99.90;;;;;;5088897;27;20055;-80
2022/10/10 11:06:48;;;;;;;13.40;6.55;;;14.10;99.90;;;;;;5118860;28;20071;-81
2022/10/10 11:09:21;;;;;;;12.05;6.68;;;14.10;99.90;;;;;;5102201;27;20047;-80
2022/10/10 11:11:49;;;;;;;9.70;6.47;;;14.10;99.90;;;;;;5103761;27;20055;-79
2022/10/10 11:14:18;;;;;;;14.43;6.63;;;14.00;99.90;;;;;;5097857;27;20039;-80
2022/10/10 11:16:56;;;;;;;14.82;7.03;;;14.00;99.90;;;;;;5103359;27;20103;-80
2022/10/10 11:19:37;;;;;;;12.65;6.45;;;14.50;99.90;;;;;;5122245;27;20114;-80
2022/10/10 11:22:16;;;;;;;10.27;6.90;;;14.40;99.90;;;;;;5121150;27;20043;-80
2022/10/10 11:24:53;;;;;;;14.05;6.47;;;13.80;99.90;;;;;;5153374;27;20050;-80
2022/10/10 11:27:39;;;;;;;8.95;6.72;;;13.80;99.90;;;;;;5146904;27;20387;-80
2022/10/10 11:30:28;;;;;;;19.55;8.32;;;13.70;99.90;;;;;;5101516;27;20139;-80
2022/10/10 11:32:56;;;;;;;15.98;7.60;;;13.60;99.90;;;;;;5128899;27;20066;-80
2022/10/10 11:35:26;;;;;;;14.23;7.60;;;15.10;99.90;;;;;;5103754;27;20038;-80
2022/10/10 11:38:13;;;;;;;17.58;8.27;;;13.50;99.90;;;;;;5113610;27;20066;-80
2022/10/10 11:40:51;;;;;;;18.02;8.23;;;13.50;99.90;;;;;;5132841;27;20043;-81
2022/10/10 11:43:56;;;;;;;11.88;7.60;;;14.90;99.90;;;;;;5144668;27;20038;-80
2022/10/10 11:46:39;;;;;;;12.10;7.97;;;13.40;99.90;;;;;;5133798;27;20038;-80
2022/10/10 11:49:37;;;;;;;16.08;8.52;;;13.40;99.90;;;;;;5144780;27;20050;-79
2022/10/10 11:52:16;;;;;;;10.07;7.80;;;13.40;99.90;;;;;;5142677;27;20111;-81
2022/10/10 11:54:54;;;;;;;14.88;8.40;;;13.40;99.90;;;;;;5099539;27;20042;-80
2022/10/10 11:57:29;;;;;;;12.30;8.88;;;13.40;99.90;;;;;;5140493;27;20442;-79
2022/10/10 12:00:02;;;;;;;13.90;8.88;;;14.50;99.90;;;;;;5119617;27;20390;-79
2022/10/10 12:02:41;;;;;;;13.50;8.85;;;13.40;99.90;;;;;;5122823;27;20046;-80
2022/10/10 12:05:20;;;;;;;15.38;8.75;;;14.50;99.90;;;;;;5098436;27;20031;-79
2022/10/10 12:08:01;;;;;;;17.55;9.75;;;13.30;99.90;;;;;;5129225;27;20043;-80
2022/10/10 12:10:34;;;;;;;17.17;10.07;;;13.60;99.90;;;;;;5133644;27;20075;-80
2022/10/10 12:13:31;;;;;;;15.30;9.52;;;13.30;99.90;;;;;;5104748;27;20034;-80
2022/10/10 12:16:03;;;;;;;15.07;10.10;;;13.30;99.90;;;;;;5141415;27;20466;-80
2022/10/10 12:18:40;;;;;;;13.77;8.52;;;13.30;99.90;;;;;;5138040;27;20138;-79
2022/10/10 12:21:25;;;;;;;14.80;9.50;;;13.30;99.90;;;;;;5142920;27;20044;-78
2022/10/10 12:24:17;;;;;;;12.75;8.80;;;13.30;99.90;;;;;;5120669;27;20764;-80
2022/10/10 12:26:52;;;;;;;16.05;8.77;;;14.50;99.90;;;;;;5098901;27;20051;-80
2022/10/10 12:29:55;;;;;;;13.85;9.45;;;13.30;99.90;;;;;;5121917;27;20043;-80
2022/10/10 12:32:40;;;;;;;14.68;8.77;;;13.30;99.90;;;;;;5142035;27;20125;-80
2022/10/10 12:35:33;;;;;;;24.48;9.90;;;13.20;99.90;;;;;;5130297;27;20122;-80
2022/10/10 12:38:06;;;;;;;15.50;8.65;;;13.30;99.90;;;;;;5116468;27;20035;-79
2022/10/10 12:40:33;;;;;;;16.20;10.23;;;13.20;99.90;;;;;;5104966;27;20082;-81
2022/10/10 12:43:26;;;;;;;18.52;10.23;;;13.20;99.90;;;;;;5104894;27;20045;-79
2022/10/10 12:45:58;;;;;;;12.98;9.85;;;13.20;99.90;;;;;;5097452;27;20090;-80
2022/10/10 12:48:24;;;;;;;17.15;10.45;;;13.20;99.90;;;;;;5100209;27;20042;-80
2022/10/10 12:51:00;;;;;;;18.35;10.30;;;13.90;99.90;;;;;;5128772;27;20054;-78
2022/10/10 12:53:32;;;;;;;16.38;10.50;;;13.10;99.90;;;;;;5133632;27;20035;-79
2022/10/10 12:56:05;;;;;;;15.50;10.90;;;13.10;99.90;;;;;;5116401;27;20042;-78
2022/10/10 12:58:36;;;;;;;17.13;11.05;;;13.10;99.90;;;;;;5107598;27;20035;-80
2022/10/10 13:01:06;;;;;;;16.27;11.77;;;13.10;99.90;;;;;;5122836;27;20030;-80
2022/10/10 13:03:47;;;;;;;16.70;10.32;;;13.10;99.90;;;;;;5119143;27;20043;-80
2022/10/10 13:06:31;;;;;;;18.45;11.70;;;13.10;99.90;;;;;;5117375;27;20045;-80
2022/10/10 13:08:57;;;;;;;18.20;10.52;;;13.10;99.90;;;;;;5097480;27;20047;-80
2022/10/10 13:11:23;;;;;;;19.15;10.95;;;13.00;99.90;;;;;;5136343;27;20042;-81